Latest Weather Observations for Mount Magnet Airport

IDW60801

Issued at 1:05 pm WST Monday 28 July 2014 (issued every 30 minutes, with the page automatically refreshed every 10 minutes)

About weather observations | Map of weather stations | Latest weather observations for WA | Other Formats
Station Details ID: 007600 Name: MOUNT MAGNET AERO Lat: -28.12 Lon: 117.84 Height: 407.0 m
Data from the previous 72 hours. | See also: Recent months at Mount Magnet Airport
Date/Time
WST
Temp
°C
App
Temp
°C
Dew
Point
Rel
Hum
%
Delta-T
°C
Wind Press
QNH
hPa
Press
MSL
hPa
Rain
since 9 am
mm
Dir
 
Spd
km/h
Gust
km/h
Spd
kts
Gust
kts
28/01:00pm 18.1 15.7 5.3 43 6.3 SSW 7 11 4 6 1024.4 1024.2 0.0
28/12:30pm 17.4 15.4 6.3 48 5.5 SW 6 11 3 6 1024.8 - 0.0
28/12:00pm 16.2 13.8 6.9 54 4.7 SSW 9 15 5 8 1025.3 1025.1 0.0
28/11:30am 16.4 14.6 7.9 57 4.4 E 7 11 4 6 1025.7 - 0.0
28/11:00am 15.4 13.7 8.2 62 3.7 SSW 7 15 4 8 1026.1 1025.9 0.0
28/10:30am 14.2 12.5 8.2 67 3.1 ESE 7 13 4 7 1026.5 - 0.0
28/10:00am 13.4 11.9 8.5 72 2.5 SSE 6 9 3 5 1026.9 1026.7 0.0
28/09:30am 11.6 9.5 8.3 80 1.7 SE 9 11 5 6 1026.9 - 0.0
28/09:00am 10.4 7.3 7.1 80 1.6 S 13 19 7 10 1026.5 1026.4 0.0
28/08:30am 9.7 7.8 4.9 72 2.2 WSW 4 7 2 4 1026.2 - 0.0
28/08:00am 8.0 6.6 3.3 72 2.0 CALM 0 0 0 0 1025.9 1025.7 0.0
28/07:30am 6.7 5.1 2.6 75 1.7 CALM 0 0 0 0 1025.7 - 0.0
28/07:00am 5.5 3.2 2.7 82 1.2 W 4 6 2 3 1025.3 1025.1 0.0
28/06:30am 4.8 3.0 1.5 79 1.3 CALM 0 6 0 3 1024.9 - 0.0
28/06:00am 6.0 3.2 2.3 77 1.5 W 6 6 3 3 1024.6 1024.4 0.0
28/05:30am 6.1 3.4 2.4 77 1.6 W 6 7 3 4 1024.3 - 0.0
28/05:00am 6.7 5.2 2.8 76 1.7 CALM 0 0 0 0 1024.1 1023.9 0.0
28/04:30am 6.8 5.2 2.7 75 1.7 CALM 0 0 0 0 1024.4 - 0.0
28/04:00am 7.9 6.6 3.9 76 1.8 CALM 0 0 0 0 1024.4 1024.2 0.0
28/03:30am 7.9 6.5 3.8 75 1.8 CALM 0 0 0 0 1024.3 - 0.0
28/03:00am 8.5 6.4 3.8 72 2.1 SW 4 6 2 3 1024.3 1024.1 0.0
28/02:30am 9.0 6.4 4.0 71 2.2 SSW 7 7 4 4 1024.1 - 0.0
28/02:00am 9.2 7.8 3.8 69 2.4 SSW 0 4 0 2 1024.3 1024.1 0.0
28/01:30am 9.9 8.6 4.3 68 2.5 CALM 0 0 0 0 1024.3 - 0.0
28/01:00am 10.7 8.2 4.6 66 2.8 SSW 7 9 4 5 1024.1 1023.9 0.0
28/12:30am 11.3 9.4 5.0 65 2.9 S 4 6 2 3 1024.3 - 0.0
28/12:00am 12.3 9.8 5.0 61 3.4 S 7 9 4 5 1024.1 1023.9 0.0
 
Date/Time
WST
Temp
°C
App
Temp
°C
Dew
Point
Rel
Hum
%
Delta-T
°C
Wind Press
QNH
hPa
Press
MSL
hPa
Rain
since 9 am
mm
Dir
 
Spd
km/h
Gust
km/h
Spd
kts
Gust
kts
27/11:30pm 13.0 9.4 5.2 59 3.7 S 13 15 7 8 1024.1 - 0.0
27/11:00pm 13.7 9.7 5.1 56 4.1 S 15 20 8 11 1024.1 1023.9 0.0
27/10:30pm 14.2 9.5 5.3 55 4.3 S 19 26 10 14 1024.4 - 0.0
27/10:00pm 14.9 10.1 5.7 54 4.5 S 20 28 11 15 1024.4 1024.2 0.0
27/09:30pm 15.4 11.0 6.7 56 4.3 SSW 19 24 10 13 1024.3 - 0.0
27/09:00pm 15.8 14.2 8.8 63 3.6 SW 7 9 4 5 1024.0 1023.8 0.0
27/08:30pm 16.2 14.8 8.9 62 3.8 SSW 6 7 3 4 1023.9 - 0.0
27/08:00pm 16.6 15.1 9.1 61 3.9 SW 7 9 4 5 1023.9 1023.7 0.0
27/07:30pm 16.7 15.3 8.9 60 4.1 SW 6 7 3 4 1023.7 - 0.0
27/07:00pm 16.9 15.4 9.1 60 4.1 SW 7 9 4 5 1023.4 1023.2 0.0
27/06:30pm 17.1 15.2 9.0 59 4.3 SW 9 13 5 7 1023.2 - 0.0
27/06:00pm 17.2 14.9 8.9 58 4.4 SW 11 15 6 8 1023.0 1022.8 0.0
27/05:30pm 17.5 14.8 8.9 57 4.5 SW 13 15 7 8 1022.7 - 0.0
27/05:00pm 17.6 15.0 9.2 58 4.5 SW 13 17 7 9 1022.5 1022.3 0.0
27/04:30pm 17.9 15.7 9.3 57 4.6 SSW 11 17 6 9 1022.3 - 0.0
27/04:00pm 17.8 15.2 9.2 57 4.6 SW 13 19 7 10 1022.3 1022.1 0.0
27/03:30pm 17.8 15.6 9.4 58 4.5 WSW 11 17 6 9 1022.1 - 0.0
27/03:00pm 17.5 15.3 9.2 58 4.4 SSW 11 20 6 11 1022.0 1021.7 0.0
27/02:30pm 17.1 15.3 9.5 61 4.1 SSE 9 17 5 9 1021.9 - 0.0
27/02:00pm 17.2 15.4 9.6 61 4.1 SSE 9 15 5 8 1022.2 1022.0 0.0
27/01:30pm 16.7 15.9 9.6 63 3.8 SW 4 11 2 6 1022.4 - 0.0
27/01:00pm 16.6 15.5 9.8 64 3.6 SSW 6 11 3 6 1022.8 1022.6 0.0
27/12:30pm 15.9 14.2 9.8 67 3.3 S 9 17 5 9 1023.3 - 0.0
27/12:00pm 15.4 13.7 10.0 70 2.9 S 9 13 5 7 1023.9 1023.7 0.0
27/11:30am 15.3 13.7 10.1 71 2.8 ESE 9 17 5 9 1024.6 - 0.0
27/11:00am 14.2 12.2 10.2 77 2.1 S 11 15 6 8 1025.0 1024.8 0.0
27/10:30am 14.0 11.7 10.4 79 1.9 S 13 17 7 9 1025.2 - 0.0
27/10:00am 13.7 11.0 10.3 80 1.8 S 15 19 8 10 1025.2 1025.0 0.0
27/09:30am 13.6 10.5 10.4 81 1.7 S 17 20 9 11 1025.2 - 0.0
27/09:00am 12.7 10.1 10.6 87 1.1 SSE 15 20 8 11 1025.0 1024.8 0.0
27/08:30am 12.5 9.7 10.0 85 1.3 S 15 19 8 10 1024.6 - 0.0
27/08:00am 12.7 10.8 10.6 87 1.1 SSW 11 15 6 8 1024.1 1023.9 0.0
27/07:30am 12.7 11.1 10.2 85 1.3 WSW 9 11 5 6 1023.7 - 0.0
27/07:00am 12.4 11.1 9.8 84 1.4 WSW 7 9 4 5 1023.2 1023.0 0.0
27/06:30am 12.3 10.9 9.7 84 1.4 WNW 7 9 4 5 1022.8 - 0.0
27/06:00am 11.4 9.8 8.6 83 1.4 NW 7 7 4 4 1022.6 1022.4 0.0
27/05:30am 10.3 7.9 7.0 80 1.6 NNW 9 11 5 6 1022.4 - 0.0
27/05:00am 10.8 8.9 7.7 81 1.5 NW 7 9 4 5 1022.1 1021.8 0.0
27/04:30am 10.7 8.8 7.4 80 1.6 WNW 7 7 4 4 1022.3 - 0.0
27/04:00am 11.6 9.6 8.5 81 1.6 WNW 9 11 5 6 1022.2 1022.0 0.0
27/03:30am 11.6 9.4 7.7 77 1.9 W 9 11 5 6 1022.1 - 0.0
27/03:00am 11.8 9.4 7.1 73 2.3 W 9 9 5 5 1022.1 1021.8 0.0
27/02:30am 12.0 9.6 6.9 71 2.5 W 9 11 5 6 1022.1 - 0.0
27/02:00am 12.5 10.4 6.5 67 2.9 WNW 7 9 4 5 1022.1 1021.8 0.0
27/01:30am 12.9 10.8 6.5 65 3.1 W 7 9 4 5 1022.0 - 0.0
27/01:00am 13.8 11.4 6.9 63 3.4 W 9 11 5 6 1021.9 1021.6 0.0
27/12:30am 14.2 11.4 6.8 61 3.7 W 11 15 6 8 1021.9 - 0.0
27/12:00am 14.2 10.8 6.1 58 3.9 W 13 15 7 8 1021.9 1021.6 0.0
 
Date/Time
WST
Temp
°C
App
Temp
°C
Dew
Point
Rel
Hum
%
Delta-T
°C
Wind Press
QNH
hPa
Press
MSL
hPa
Rain
since 9 am
mm
Dir
 
Spd
km/h
Gust
km/h
Spd
kts
Gust
kts
26/11:30pm 14.2 10.6 5.0 54 4.4 NW 13 17 7 9 1021.8 - 0.0
26/11:00pm 14.4 10.7 4.4 51 4.7 NW 13 15 7 8 1021.7 1021.4 0.0
26/10:30pm 14.5 11.0 3.6 48 5.1 NW 11 15 6 8 1021.8 - 0.0
26/10:00pm 15.0 11.1 3.2 45 5.4 NNW 13 17 7 9 1021.8 1021.5 0.0
26/09:30pm 14.9 10.9 3.1 45 5.4 NNW 13 15 7 8 1021.7 - 0.0
26/09:00pm 14.8 10.4 2.7 44 5.5 NNW 15 15 8 8 1021.5 1021.3 0.0
26/08:30pm 14.9 10.8 2.4 43 5.7 N 13 13 7 7 1021.4 - 0.0
26/08:00pm 15.5 11.4 2.3 41 6.0 N 13 15 7 8 1021.3 1021.1 0.0
26/07:30pm 15.8 12.1 2.2 40 6.2 N 11 13 6 7 1021.2 - 0.0
26/07:00pm 16.2 12.4 1.9 38 6.5 NNW 11 13 6 7 1021.1 1020.9 0.0
26/06:30pm 17.7 13.6 2.1 35 7.2 NNW 13 15 7 8 1020.8 - 0.0
26/06:00pm 19.3 14.8 2.2 32 8.0 NW 15 20 8 11 1020.7 1020.5 0.0
26/05:30pm 19.9 14.7 2.3 31 8.3 WNW 19 24 10 13 1020.6 - 0.0
26/05:00pm 20.8 14.6 2.1 29 8.8 WNW 24 39 13 21 1020.5 1020.3 0.0
26/04:30pm 21.0 14.7 1.3 27 9.2 WNW 24 35 13 19 1020.3 - 0.0
26/04:00pm 21.2 14.0 0.4 25 9.5 WNW 28 39 15 21 1020.1 1019.9 0.0
26/03:30pm 21.6 14.4 0.8 25 9.7 NW 28 43 15 23 1020.1 - 0.0
26/03:00pm 21.7 13.6 0.8 25 9.7 NW 33 48 18 26 1020.1 1019.9 0.0
26/02:30pm 21.8 14.8 2.0 27 9.4 NNW 28 39 15 21 1020.0 - 0.0
26/02:00pm 21.3 14.3 2.1 28 9.1 WNW 28 37 15 20 1020.3 1020.1 0.0
26/01:30pm 21.3 15.2 2.6 29 9.0 WNW 24 32 13 17 1020.6 - 0.0
26/01:00pm 20.6 15.3 2.9 31 8.5 WNW 20 33 11 18 1021.1 1020.9 0.0
26/12:30pm 20.4 14.2 2.3 30 8.6 W 24 32 13 17 1021.7 - 0.0
26/12:00pm 20.0 14.4 1.4 29 8.6 W 20 30 11 16 1022.1 1021.8 0.0
26/11:30am 19.3 14.3 1.3 30 8.3 NW 17 28 9 15 1022.5 - 0.0
26/11:00am 18.8 14.7 2.2 33 7.7 WNW 13 28 7 15 1022.9 1022.7 0.0
26/10:30am 17.3 13.3 2.9 38 6.7 NNW 13 17 7 9 1023.2 - 0.0
26/10:00am 16.6 13.2 4.0 43 6.0 WNW 11 15 6 8 1023.3 1023.1 0.0
26/09:30am 15.4 11.7 2.2 41 6.0 WNW 11 13 6 7 1023.2 - 0.0
26/09:00am 14.2 10.2 0.5 39 5.9 NNW 11 15 6 8 1022.9 1022.7 0.0
26/08:30am 11.9 8.5 -0.3 43 5.1 N 7 9 4 5 1022.5 - 0.0
26/08:00am 9.3 5.9 -0.6 50 4.0 N 7 11 4 6 1022.2 1022.0 0.0
26/07:30am 7.3 3.4 -1.4 54 3.4 N 9 11 5 6 1021.9 - 0.0
26/07:00am 6.3 2.0 -1.3 58 2.9 NNE 11 13 6 7 1021.4 1021.2 0.0
26/06:30am 6.6 2.0 -1.3 57 3.0 N 13 13 7 7 1021.2 - 0.0
26/06:00am 6.6 2.3 -1.3 57 3.0 N 11 13 6 7 1020.9 1020.7 0.0
26/05:30am 7.4 4.9 -1.0 55 3.3 SW 2 6 1 3 1020.7 - 0.0
26/05:00am 8.4 4.2 -0.9 52 3.7 SW 11 15 6 8 1020.6 1020.4 0.0
26/04:30am 8.4 4.2 -0.9 52 3.7 N 11 13 6 7 1020.2 - 0.0
26/04:00am 8.4 3.8 -0.9 52 3.7 N 13 15 7 8 1020.0 1019.8 0.0
26/03:30am 9.2 4.3 -0.7 50 4.0 N 15 19 8 10 1020.2 - 0.0
26/03:00am 9.6 4.7 -0.3 50 4.0 N 15 17 8 9 1020.2 1020.0 0.0
26/02:30am 9.1 4.6 -0.2 52 3.8 N 13 15 7 8 1020.2 - 0.0
26/02:00am 8.8 4.7 -0.5 52 3.7 N 11 13 6 7 1020.2 1020.0 0.0
26/01:30am 9.5 5.3 -0.7 49 4.1 N 11 13 6 7 1020.3 - 0.0
26/01:00am 11.8 7.7 0.0 44 4.9 N 11 15 6 8 1020.5 1020.3 0.0
26/12:30am 11.6 6.7 -0.2 44 4.9 N 15 15 8 8 1020.6 - 0.0
26/12:00am 11.5 7.4 -0.3 44 4.9 N 11 13 6 7 1021.0 1020.8 0.0
 
Date/Time
WST
Temp
°C
App
Temp
°C
Dew
Point
Rel
Hum
%
Delta-T
°C
Wind Press
QNH
hPa
Press
MSL
hPa
Rain
since 9 am
mm
Dir
 
Spd
km/h
Gust
km/h
Spd
kts
Gust
kts
25/11:30pm 11.4 7.7 -0.1 45 4.8 N 9 11 5 6 1021.3 - 0.0
25/11:00pm 12.2 7.7 0.0 43 5.1 N 13 15 7 8 1021.5 1021.3 0.0
25/10:30pm 12.8 8.4 0.2 42 5.4 N 13 13 7 7 1021.9 - 0.0
25/10:00pm 13.4 8.6 0.1 40 5.7 N 15 17 8 9 1022.0 1021.7 0.0
25/09:30pm 13.4 9.3 0.1 40 5.7 N 11 13 6 7 1022.1 - 0.0
25/09:00pm 13.4 9.4 0.4 41 5.6 N 11 15 6 8 1022.0 1021.7 0.0
25/08:30pm 13.5 9.2 0.9 42 5.5 N 13 15 7 8 1021.9 - 0.0
25/08:00pm 14.3 10.4 1.2 41 5.8 N 11 13 6 7 1021.7 1021.4 0.0
25/07:30pm 14.6 10.8 1.5 41 5.8 N 11 13 6 7 1021.5 - 0.0
25/07:00pm 15.7 11.8 1.4 38 6.4 N 11 13 6 7 1021.3 1021.1 0.0
25/06:30pm 17.0 13.5 1.0 34 7.2 N 9 9 5 5 1021.1 - 0.0
25/06:00pm 18.6 14.7 1.2 31 7.9 N 11 13 6 7 1020.7 1020.5 0.0
25/05:30pm 20.1 15.1 1.5 29 8.7 N 17 20 9 11 1020.6 - 0.0
25/05:00pm 21.1 15.8 1.9 28 9.1 N 19 24 10 13 1020.5 1020.3 0.0
25/04:30pm 21.4 16.1 1.6 27 9.3 N 19 26 10 14 1020.6 - 0.0
25/04:00pm 21.8 16.5 2.0 27 9.4 N 19 26 10 14 1020.6 1020.4 0.0
25/03:30pm 21.8 16.3 2.0 27 9.4 N 20 26 11 14 1020.7 - 0.0
25/03:00pm 21.0 16.2 2.8 30 8.7 NNE 17 20 9 11 1020.7 1020.5 0.0
25/02:30pm 21.2 15.9 3.0 30 8.8 N 20 30 11 16 1020.8 - 0.0
25/02:00pm 20.5 15.3 3.3 32 8.3 N 20 32 11 17 1021.0 1020.8 0.0
25/01:30pm 20.4 15.9 4.4 35 7.9 NNE 17 30 9 16 1021.3 - 0.0

Other Formats:

Comma delimited format used in spreadsheet applications
http://www.bom.gov.au/fwo/IDW60801/IDW60801.94429.axf

JavaScript Object Notation format (JSON) in row-major order
http://www.bom.gov.au/fwo/IDW60801/IDW60801.94429.json